Time;durP1;ratioP1;P1;durP2;ratioP2;P2;SDS_P1;SDS_P2;PMS_P1;PMS_P2;Temp;Humidity;BMP_temperature;BMP_pressure;BME280_temperature;BME280_humidity;BME280_pressure;Samples;Min_cycle;Max_cycle;Signal;HPM_P1;HPM_P2
2021/03/17 00:01:46;;;;;;;9.70;6.77;;;;;;;8.75;61.31;102410.09;4913101;28;116162;-68
2021/03/17 00:04:32;;;;;;;10.13;6.47;;;;;;;8.75;61.22;102412.75;4913918;28;115754;-67
2021/03/17 00:07:17;;;;;;;10.38;7.25;;;;;;;8.75;61.32;102418.03;4915765;28;124075;-67
2021/03/17 00:10:03;;;;;;;10.80;6.60;;;;;;;8.73;60.84;102422.47;4899845;28;124759;-68
2021/03/17 00:12:49;;;;;;;10.30;6.20;;;;;;;8.71;61.21;102432.19;4915188;28;114961;-68
2021/03/17 00:15:40;;;;;;;8.02;5.70;;;;;;;8.71;61.29;102432.19;4900236;28;114413;-67
2021/03/17 00:18:25;;;;;;;9.63;6.00;;;;;;;8.71;60.97;102434.81;4913738;28;126120;-68
2021/03/17 00:21:11;;;;;;;13.30;6.20;;;;;;;8.72;61.19;102431.28;4915998;28;124205;-68
2021/03/17 00:23:56;;;;;;;10.07;6.80;;;;;;;8.75;61.32;102425.97;4914576;28;114958;-68
2021/03/17 00:26:41;;;;;;;11.17;6.33;;;;;;;8.79;61.13;102431.22;4917058;28;114893;-68
2021/03/17 00:29:27;;;;;;;9.18;6.20;;;;;;;8.79;61.43;102431.22;4898553;28;125405;-68
2021/03/17 00:32:12;;;;;;;9.10;6.10;;;;;;;8.77;61.00;102424.16;4913970;28;125189;-68
2021/03/17 00:34:57;;;;;;;7.28;5.13;;;;;;;8.76;61.08;102422.44;4916411;28;115250;-68
2021/03/17 00:37:42;;;;;;;9.13;5.27;;;;;;;8.75;61.30;102418.03;4916074;28;115451;-68
2021/03/17 00:40:28;;;;;;;7.60;5.13;;;;;;;8.77;61.43;102429.44;4913113;28;124923;-68
2021/03/17 00:43:13;;;;;;;8.13;5.38;;;;;;;8.77;61.41;102424.16;4915330;28;125366;-68
2021/03/17 00:45:58;;;;;;;7.90;5.28;;;;;;;8.74;60.98;102426.88;4913479;28;116010;-68
2021/03/17 00:48:28;;;;;;;8.38;5.60;;;;;;;8.72;61.24;102439.22;4898161;28;113114;-68
2021/03/17 00:51:08;;;;;;;8.27;5.25;;;;;;;8.71;61.01;102440.09;4897400;28;123882;-68
2021/03/17 00:53:52;;;;;;;7.70;5.10;;;;;;;8.68;60.85;102445.44;4916245;28;124823;-68
2021/03/17 00:56:21;;;;;;;7.03;5.15;;;;;;;8.65;61.09;102440.19;4900239;28;115136;-68
2021/03/17 00:58:48;;;;;;;9.60;5.47;;;;;;;8.63;60.95;102449.03;4899127;28;114979;-68
2021/03/17 01:01:15;;;;;;;7.85;5.43;;;;;;;8.62;60.87;102453.41;4895239;28;123142;-68
2021/03/17 01:03:42;;;;;;;6.70;4.72;;;;;;;8.58;61.21;102455.19;4898415;28;122788;-68
2021/03/17 01:06:09;;;;;;;6.60;4.80;;;;;;;8.58;61.38;102454.34;4914905;28;114503;-68
2021/03/17 01:08:35;;;;;;;7.45;4.78;;;;;;;8.56;61.46;102461.41;4915647;28;114816;-68
2021/03/17 01:11:02;;;;;;;7.43;4.97;;;;;;;8.55;61.21;102459.63;4932151;22;124127;-72
2021/03/17 01:13:29;;;;;;;6.57;4.97;;;;;;;8.54;61.13;102444.69;4895716;28;123087;-73
2021/03/17 01:15:55;;;;;;;6.18;4.38;;;;;;;8.54;61.25;102442.94;4911495;28;114324;-72
2021/03/17 01:18:22;;;;;;;8.30;5.00;;;;;;;8.55;61.08;102451.72;4908007;28;112891;-71
2021/03/17 01:20:49;;;;;;;8.32;4.40;;;;;;;8.55;61.20;102447.34;4905386;28;122881;-73
2021/03/17 01:23:15;;;;;;;6.75;4.30;;;;;;;8.55;61.38;102443.78;4878228;28;123306;-72
2021/03/17 01:25:44;;;;;;;6.03;4.40;;;;;;;8.54;61.09;102452.63;4886612;28;113720;-72
2021/03/17 01:28:12;;;;;;;6.75;4.40;;;;;;;8.54;61.43;102447.34;4897252;28;114182;-72
2021/03/17 01:30:51;;;;;;;7.07;4.85;;;;;;;8.51;61.16;102450.91;4890907;28;124466;-72
2021/03/17 01:33:19;;;;;;;5.95;4.32;;;;;;;8.50;61.01;102453.56;4888084;28;123949;-72
2021/03/17 01:35:47;;;;;;;6.20;4.55;;;;;;;8.49;61.33;102451.78;4892156;28;113819;-72
2021/03/17 01:38:14;;;;;;;5.82;4.25;;;;;;;8.48;61.49;102452.69;4890947;28;113869;-72
2021/03/17 01:40:43;;;;;;;6.78;4.60;;;;;;;8.47;61.49;102450.94;4892515;28;123843;-72
2021/03/17 01:43:11;;;;;;;6.75;5.15;;;;;;;8.45;61.19;102458.00;4905573;28;121904;-72
2021/03/17 01:45:38;;;;;;;7.63;4.78;;;;;;;8.44;60.99;102466.78;4886522;28;114539;-72
2021/03/17 01:48:06;;;;;;;7.05;5.15;;;;;;;8.44;61.16;102466.78;4905727;28;114300;-72
2021/03/17 01:50:52;;;;;;;7.65;5.07;;;;;;;8.43;61.16;102467.69;4890907;28;124498;-73
2021/03/17 01:53:27;;;;;;;6.75;4.88;;;;;;;8.42;61.53;102468.56;4890136;28;123564;-72
2021/03/17 01:55:54;;;;;;;8.00;5.43;;;;;;;8.42;61.27;102468.56;4890704;28;114229;-72
2021/03/17 01:58:22;;;;;;;6.95;5.10;;;;;;;8.43;61.55;102470.34;4895858;28;113005;-72
2021/03/17 02:00:49;;;;;;;7.90;5.68;;;;;;;8.43;61.39;102470.34;4891814;28;123593;-72
2021/03/17 02:03:16;;;;;;;6.60;5.57;;;;;;;8.42;61.57;102458.00;4891915;28;124048;-72
2021/03/17 02:05:46;;;;;;;6.60;5.25;;;;;;;8.41;61.43;102467.69;4890955;28;114937;-72
2021/03/17 02:08:16;;;;;;;6.80;5.18;;;;;;;8.41;61.49;102477.38;4891063;28;114296;-72
2021/03/17 02:10:44;;;;;;;8.10;5.15;;;;;;;8.39;61.45;102482.66;4885621;28;123912;-72
2021/03/17 02:13:26;;;;;;;8.35;5.95;;;;;;;8.37;61.58;102490.59;4889439;28;123892;-72
2021/03/17 02:16:03;;;;;;;7.88;5.07;;;;;;;8.37;61.98;102482.66;4889322;28;114146;-72
2021/03/17 02:19:05;;;;;;;7.20;5.70;;;;;;;8.38;61.67;102478.25;4889670;28;112850;-72
2021/03/17 02:21:52;;;;;;;8.60;5.72;;;;;;;8.36;61.84;102488.84;4889377;28;124068;-72
2021/03/17 02:24:25;;;;;;;7.28;5.13;;;;;;;8.37;61.75;102487.94;4890633;28;124482;-72
2021/03/17 02:27:20;;;;;;;6.80;5.47;;;;;;;8.37;61.84;102482.66;4893139;28;114471;-72
2021/03/17 02:29:58;;;;;;;7.03;5.18;;;;;;;8.38;61.99;102489.72;4888687;28;114297;-72
2021/03/17 02:32:37;;;;;;;8.18;5.90;;;;;;;8.39;61.88;102486.16;4888122;28;124112;-72
2021/03/17 02:35:08;;;;;;;7.90;6.55;;;;;;;8.41;61.72;102477.38;4901600;28;124080;-72
2021/03/17 02:37:45;;;;;;;8.50;6.03;;;;;;;8.41;62.02;102462.41;4891023;28;114967;-72
2021/03/17 02:40:33;;;;;;;8.00;6.00;;;;;;;8.45;61.60;102471.19;4873522;28;115285;-72
2021/03/17 02:43:19;;;;;;;11.05;6.78;;;;;;;8.45;61.90;102463.28;4890649;28;124500;-72
2021/03/17 02:46:02;;;;;;;10.52;6.60;;;;;;;8.46;61.73;102470.31;4887783;28;124325;-72
2021/03/17 02:48:32;;;;;;;9.27;6.22;;;;;;;8.48;61.64;102457.97;4886328;28;114431;-72
2021/03/17 02:51:08;;;;;;;9.80;6.68;;;;;;;8.49;61.86;102443.88;4891646;28;112854;-72
2021/03/17 02:53:37;;;;;;;12.18;7.07;;;;;;;8.53;61.82;102445.59;4888689;28;124499;-72
2021/03/17 02:56:07;;;;;;;9.57;7.10;;;;;;;8.55;61.63;102449.06;4890299;28;124142;-72
2021/03/17 02:58:36;;;;;;;8.10;6.18;;;;;;;8.58;61.82;102459.63;4893007;28;114318;-72
2021/03/17 03:01:05;;;;;;;8.73;6.00;;;;;;;8.58;61.81;102449.91;4904788;28;112846;-72
2021/03/17 03:03:34;;;;;;;8.15;6.30;;;;;;;8.62;61.79;102450.75;4893159;28;124128;-72
2021/03/17 03:06:03;;;;;;;8.02;6.07;;;;;;;8.64;61.48;102462.19;4878000;28;123152;-72
2021/03/17 03:08:30;;;;;;;9.38;6.00;;;;;;;8.66;61.92;102455.13;4892767;28;113512;-72
2021/03/17 03:10:57;;;;;;;8.68;6.30;;;;;;;8.66;61.68;102447.19;4893283;28;114121;-72
2021/03/17 03:13:27;;;;;;;8.10;6.05;;;;;;;8.65;61.66;102445.47;4894764;28;124512;-72
2021/03/17 03:16:12;;;;;;;8.05;6.22;;;;;;;8.65;61.77;102444.59;4891817;28;123729;-72
2021/03/17 03:18:41;;;;;;;9.27;5.97;;;;;;;8.65;61.58;102448.09;4894404;28;114674;-72
2021/03/17 03:21:11;;;;;;;6.70;5.80;;;;;;;8.66;61.64;102441.91;4892023;28;114412;-72
2021/03/17 03:23:38;;;;;;;8.15;6.30;;;;;;;8.67;61.73;102442.81;4893217;28;124026;-72
2021/03/17 03:26:05;;;;;;;7.82;6.10;;;;;;;8.68;61.47;102437.50;4891958;28;124430;-72
2021/03/17 03:28:33;;;;;;;8.63;6.50;;;;;;;8.69;61.60;102439.25;4894436;28;115174;-72
2021/03/17 03:31:00;;;;;;;9.40;6.50;;;;;;;8.71;61.60;102440.09;4894499;28;114730;-72
2021/03/17 03:33:27;;;;;;;7.85;6.53;;;;;;;8.71;61.61;102434.81;4891865;28;124104;-72
2021/03/17 03:35:54;;;;;;;10.52;6.82;;;;;;;8.70;61.48;102438.38;4893944;28;124116;-72
2021/03/17 03:38:22;;;;;;;8.50;6.60;;;;;;;8.71;62.00;102440.09;4890831;28;114315;-72
2021/03/17 03:40:49;;;;;;;7.90;6.85;;;;;;;8.71;61.99;102429.53;4894220;28;113432;-72
2021/03/17 03:43:15;;;;;;;9.00;7.28;;;;;;;8.71;62.05;102429.53;4907089;28;122152;-72
2021/03/17 03:45:42;;;;;;;9.63;7.53;;;;;;;8.72;61.94;102430.41;4892950;28;124351;-72
2021/03/17 03:48:10;;;;;;;8.55;6.95;;;;;;;8.73;61.79;102432.16;4889914;28;114101;-72
2021/03/17 03:50:48;;;;;;;9.35;7.47;;;;;;;8.72;61.43;102436.56;4895372;28;114600;-72
2021/03/17 03:53:29;;;;;;;10.07;7.35;;;;;;;8.73;61.98;102437.44;4888804;28;124293;-72
2021/03/17 03:56:04;;;;;;;7.90;6.82;;;;;;;8.74;61.81;102440.06;4894076;28;123963;-72
2021/03/17 03:58:37;;;;;;;9.10;7.10;;;;;;;8.72;61.58;102441.88;4892945;28;113583;-72
2021/03/17 04:01:10;;;;;;;9.05;6.72;;;;;;;8.71;61.57;102445.38;4892838;28;113989;-72
2021/03/17 04:03:42;;;;;;;8.73;6.70;;;;;;;8.71;61.76;102450.66;4889959;28;124302;-72
2021/03/17 04:06:13;;;;;;;9.60;6.55;;;;;;;8.71;61.72;102449.78;4889128;28;124144;-72
2021/03/17 04:08:46;;;;;;;9.45;6.35;;;;;;;8.69;61.82;102447.16;4889469;28;114260;-72
2021/03/17 04:11:15;;;;;;;8.57;6.68;;;;;;;8.69;61.78;102457.72;4890690;28;113855;-72
2021/03/17 04:13:44;;;;;;;9.00;6.03;;;;;;;8.69;61.99;102457.72;4890260;28;123427;-72
2021/03/17 04:16:12;;;;;;;7.28;6.07;;;;;;;8.69;61.81;102460.38;4894872;28;124633;-72
2021/03/17 04:18:43;;;;;;;9.25;6.22;;;;;;;8.71;62.02;102463.00;4906593;28;114957;-72
2021/03/17 04:21:16;;;;;;;8.85;6.38;;;;;;;8.71;61.87;102470.94;4901722;28;113816;-72
2021/03/17 04:23:45;;;;;;;7.35;6.10;;;;;;;8.71;62.07;102461.22;4888472;28;124327;-71
2021/03/17 04:26:13;;;;;;;7.47;6.10;;;;;;;8.71;61.99;102460.38;4891988;28;123483;-71
2021/03/17 04:28:41;;;;;;;8.20;5.72;;;;;;;8.70;61.84;102458.59;4893330;28;113845;-71
2021/03/17 04:31:10;;;;;;;7.78;5.95;;;;;;;8.69;61.90;102462.16;4889767;28;114376;-71
2021/03/17 04:33:37;;;;;;;6.78;5.88;;;;;;;8.66;62.03;102457.75;4891566;28;124133;-71
2021/03/17 04:36:07;;;;;;;7.30;5.10;;;;;;;8.66;61.96;102462.19;4893860;28;123055;-71
2021/03/17 04:38:35;;;;;;;7.65;5.60;;;;;;;8.66;61.93;102460.41;4892279;28;114437;-71
2021/03/17 04:41:03;;;;;;;7.18;5.28;;;;;;;8.65;62.12;102456.03;4887201;28;115091;-71
2021/03/17 04:43:30;;;;;;;6.13;5.07;;;;;;;8.68;62.04;102466.56;4892391;28;122904;-72
2021/03/17 04:46:01;;;;;;;6.47;5.03;;;;;;;8.69;62.23;102463.00;4892291;28;123245;-71
2021/03/17 04:48:28;;;;;;;6.72;4.97;;;;;;;8.69;61.97;102473.59;4904107;28;113404;-71
2021/03/17 04:50:55;;;;;;;8.80;4.82;;;;;;;8.68;62.15;102470.94;4890905;28;114375;-71
2021/03/17 04:53:22;;;;;;;6.68;4.65;;;;;;;8.66;62.24;102470.97;4892476;28;123751;-73
2021/03/17 04:55:49;;;;;;;6.95;4.80;;;;;;;8.66;62.20;102473.59;4889201;28;123661;-71
2021/03/17 04:58:22;;;;;;;9.55;4.75;;;;;;;8.65;62.22;102471.88;4893053;28;114068;-71
2021/03/17 05:00:49;;;;;;;5.70;4.72;;;;;;;8.64;62.21;102475.38;4892628;28;113904;-71
2021/03/17 05:03:22;;;;;;;6.40;4.53;;;;;;;8.63;62.14;102478.06;4893940;28;124290;-71
2021/03/17 05:05:50;;;;;;;5.85;4.78;;;;;;;8.63;62.45;102489.50;4907742;28;123854;-71
2021/03/17 05:08:18;;;;;;;6.53;4.43;;;;;;;8.61;62.24;102486.00;4886322;28;115488;-71
2021/03/17 05:10:47;;;;;;;6.35;4.90;;;;;;;8.62;62.20;102493.03;4892594;28;115024;-71
2021/03/17 05:13:15;;;;;;;6.32;4.93;;;;;;;8.62;62.68;102493.03;4892450;28;124122;-71
2021/03/17 05:15:44;;;;;;;7.28;5.28;;;;;;;8.64;62.35;102485.97;4889134;28;124307;-71
2021/03/17 05:18:15;;;;;;;7.88;5.22;;;;;;;8.62;62.34;102487.75;4888743;28;114589;-71
2021/03/17 05:20:45;;;;;;;6.53;5.15;;;;;;;8.62;62.64;102482.47;4890906;28;114254;-71
2021/03/17 05:23:13;;;;;;;6.75;5.55;;;;;;;8.63;62.46;102483.34;4888673;28;124467;-71
2021/03/17 05:25:40;;;;;;;7.20;5.70;;;;;;;8.64;62.65;102491.25;4892070;28;123756;-71
2021/03/17 05:28:07;;;;;;;6.70;5.13;;;;;;;8.64;62.81;102491.25;4893764;28;114283;-71
2021/03/17 05:30:39;;;;;;;6.72;5.00;;;;;;;8.65;62.65;102493.00;4893806;28;115698;-71
2021/03/17 05:33:08;;;;;;;7.25;5.32;;;;;;;8.65;62.59;102485.06;4890241;28;123555;-71
2021/03/17 05:35:37;;;;;;;7.30;5.07;;;;;;;8.67;62.45;102485.94;4876366;28;123853;-71
2021/03/17 05:38:05;;;;;;;8.77;5.70;;;;;;;8.66;62.60;102486.81;4894292;28;114527;-71
2021/03/17 05:40:32;;;;;;;9.10;5.32;;;;;;;8.66;62.46;102484.16;4892333;28;113766;-71
2021/03/17 05:43:02;;;;;;;10.20;6.13;;;;;;;8.65;62.61;102477.16;4875694;28;123773;-71
2021/03/17 05:45:31;;;;;;;7.97;5.63;;;;;;;8.67;62.89;102485.94;4887567;28;124306;-71
2021/03/17 05:48:08;;;;;;;9.52;5.53;;;;;;;8.67;63.13;102485.94;4890035;28;113842;-71
2021/03/17 05:50:35;;;;;;;9.02;5.70;;;;;;;8.66;62.91;102494.72;4888091;28;113411;-71
2021/03/17 05:53:05;;;;;;;8.88;6.13;;;;;;;8.65;63.04;102493.00;4890424;28;123601;-71
2021/03/17 05:55:32;;;;;;;8.07;5.85;;;;;;;8.64;62.76;102493.88;4886983;28;124634;-71
2021/03/17 05:57:59;;;;;;;7.88;5.68;;;;;;;8.65;62.97;102493.00;4888701;28;115536;-71
2021/03/17 06:00:26;;;;;;;7.97;5.55;;;;;;;8.65;62.99;102482.44;4884759;28;115117;-71
2021/03/17 06:02:55;;;;;;;7.35;5.45;;;;;;;8.66;63.00;102478.88;4902652;28;122997;-71
2021/03/17 06:05:24;;;;;;;6.43;5.15;;;;;;;8.67;62.95;102475.38;4887744;28;124603;-71
2021/03/17 06:08:03;;;;;;;8.05;5.35;;;;;;;8.68;63.10;102470.94;4892018;28;114359;-71
2021/03/17 06:10:30;;;;;;;8.00;4.95;;;;;;;8.69;62.89;102473.59;4886588;28;113658;-71
2021/03/17 06:13:11;;;;;;;8.10;5.45;;;;;;;8.70;63.02;102470.06;4885742;28;124609;-71
2021/03/17 06:15:41;;;;;;;6.93;4.97;;;;;;;8.70;63.30;102464.78;4887104;28;123638;-71
2021/03/17 06:18:35;;;;;;;7.65;4.97;;;;;;;8.70;62.82;102470.06;4891380;28;113852;-71
2021/03/17 06:21:06;;;;;;;6.22;4.32;;;;;;;8.73;62.94;102469.16;4907750;28;112645;-71
2021/03/17 06:23:33;;;;;;;5.60;3.78;;;;;;;8.74;63.08;102469.13;4889803;28;124688;-71
2021/03/17 06:26:05;;;;;;;6.57;3.75;;;;;;;8.76;63.31;102479.69;4889541;28;124727;-71
2021/03/17 06:28:33;;;;;;;7.05;4.00;;;;;;;8.77;63.04;102474.34;4893671;28;114337;-71
2021/03/17 06:30:59;;;;;;;6.20;3.67;;;;;;;8.77;63.27;102477.00;4891062;28;114217;-71
2021/03/17 06:33:26;;;;;;;5.75;3.45;;;;;;;8.81;63.19;102471.69;4886797;28;123781;-71
2021/03/17 06:36:12;;;;;;;4.20;3.70;;;;;;;8.81;62.96;102477.84;4891326;28;124505;-71
2021/03/17 06:38:40;;;;;;;5.18;3.22;;;;;;;8.81;63.05;102483.13;4891182;28;114375;-71
2021/03/17 06:41:07;;;;;;;5.80;3.08;;;;;;;8.81;63.00;102487.53;4889584;28;113270;-73
2021/03/17 06:43:43;;;;;;;4.95;3.05;;;;;;;8.82;63.07;102494.59;4885644;28;125038;-73
2021/03/17 06:46:17;;;;;;;5.72;3.22;;;;;;;8.82;63.00;102494.59;4885932;28;124158;-72
2021/03/17 06:49:04;;;;;;;4.07;3.00;;;;;;;8.83;63.33;102491.91;4890920;28;115077;-73
2021/03/17 06:51:31;;;;;;;6.18;3.38;;;;;;;8.84;63.25;102483.09;4892058;28;115029;-75
2021/03/17 06:54:00;;;;;;;4.93;3.03;;;;;;;8.86;63.31;102485.75;4890233;28;125335;-75
2021/03/17 06:56:33;;;;;;;4.45;2.67;;;;;;;8.86;62.93;102485.75;4904379;28;124640;-72
2021/03/17 06:59:01;;;;;;;3.08;2.78;;;;;;;8.87;63.08;102487.47;4891354;28;113385;-72
2021/03/17 07:01:38;;;;;;;4.50;2.65;;;;;;;8.89;63.33;102486.59;4902464;28;113428;-72
2021/03/17 07:04:08;;;;;;;4.10;2.47;;;;;;;8.93;63.03;102487.41;4887962;28;123906;-74
2021/03/17 07:06:36;;;;;;;3.60;2.40;;;;;;;8.93;63.07;102485.66;4892372;28;124521;-73
2021/03/17 07:09:24;;;;;;;3.55;2.00;;;;;;;8.94;62.80;102483.88;4888012;28;113770;-73
2021/03/17 07:12:04;;;;;;;3.25;2.10;;;;;;;8.95;62.94;102480.34;4887048;28;113432;-74
2021/03/17 07:14:39;;;;;;;2.58;2.00;;;;;;;8.96;62.75;102482.94;4907186;22;124231;-69
2021/03/17 07:17:23;;;;;;;3.42;2.20;;;;;;;8.99;62.57;102491.75;4898534;28;123603;-68
2021/03/17 07:19:50;;;;;;;4.07;2.00;;;;;;;8.97;62.52;102494.41;4891382;28;113608;-68
2021/03/17 07:22:16;;;;;;;2.88;2.08;;;;;;;8.96;62.68;102492.66;4882754;28;113180;-69
2021/03/17 07:24:45;;;;;;;2.67;2.08;;;;;;;8.98;62.52;102496.16;4898283;28;123686;-68
2021/03/17 07:27:24;;;;;;;3.88;2.20;;;;;;;8.99;62.77;102503.19;4888296;28;122681;-69
2021/03/17 07:30:00;;;;;;;3.50;2.17;;;;;;;9.03;62.51;102510.19;4890780;28;114048;-67
2021/03/17 07:33:02;;;;;;;3.70;2.30;;;;;;;9.06;62.70;102510.16;4882518;28;114803;-68
2021/03/17 07:35:32;;;;;;;3.30;2.58;;;;;;;9.12;62.90;102515.38;4873844;28;123717;-68
2021/03/17 07:38:06;;;;;;;3.60;2.47;;;;;;;9.14;62.66;102508.28;4884923;28;122725;-69
2021/03/17 07:40:35;;;;;;;3.42;2.63;;;;;;;9.19;62.97;102520.56;4884422;28;115114;-69
2021/03/17 07:43:03;;;;;;;3.75;2.88;;;;;;;9.23;62.46;102527.56;4878264;28;114723;-69
2021/03/17 07:45:32;;;;;;;3.88;2.78;;;;;;;9.25;62.68;102531.06;4874373;28;123397;-68
2021/03/17 07:48:04;;;;;;;3.80;2.50;;;;;;;9.26;62.63;102533.69;4875259;28;124467;-68
2021/03/17 07:50:32;;;;;;;4.00;2.90;;;;;;;9.27;62.31;102546.03;4892115;28;114414;-68
2021/03/17 07:53:07;;;;;;;2.83;2.47;;;;;;;9.27;62.63;102530.16;4878313;28;113037;-68
2021/03/17 07:55:36;;;;;;;3.30;1.70;;;;;;;9.27;62.29;102540.75;4891876;28;123755;-68
2021/03/17 07:58:03;;;;;;;2.05;1.67;;;;;;;9.24;61.93;102534.63;4881465;28;123954;-68
2021/03/17 08:00:30;;;;;;;1.88;1.63;;;;;;;9.22;62.02;102546.97;4891543;28;113033;-68
2021/03/17 08:02:57;;;;;;;3.40;2.08;;;;;;;9.20;61.75;102548.78;4884932;28;113996;-68
2021/03/17 08:05:29;;;;;;;5.63;1.95;;;;;;;9.15;61.64;102552.34;4877231;28;123929;-68
2021/03/17 08:07:56;;;;;;;2.25;1.70;;;;;;;9.13;61.86;102543.53;4875329;28;123699;-68
2021/03/17 08:10:23;;;;;;;2.60;1.65;;;;;;;9.12;61.71;102547.09;4883814;28;114415;-68
2021/03/17 08:12:50;;;;;;;3.92;2.00;;;;;;;9.13;61.89;102538.25;4884955;28;114596;-67
2021/03/17 08:15:18;;;;;;;3.75;2.10;;;;;;;9.18;62.05;102534.69;4880381;28;123279;-68
2021/03/17 08:17:45;;;;;;;2.85;1.92;;;;;;;9.20;62.26;102543.50;4882772;28;122877;-68
2021/03/17 08:20:16;;;;;;;3.83;1.90;;;;;;;9.22;61.90;102544.34;4890073;28;114779;-68
2021/03/17 08:22:43;;;;;;;4.18;1.92;;;;;;;9.25;61.91;102549.56;4877708;28;114067;-68
2021/03/17 08:25:12;;;;;;;3.50;2.00;;;;;;;9.31;62.15;102554.81;4891129;28;124204;-68
2021/03/17 08:27:39;;;;;;;3.58;2.25;;;;;;;9.37;62.09;102552.06;4883790;28;123139;-68
2021/03/17 08:30:08;;;;;;;4.38;2.25;;;;;;;9.44;62.15;102556.41;4895882;28;115267;-68
2021/03/17 08:32:58;;;;;;;4.78;2.17;;;;;;;9.48;61.77;102555.47;4895846;28;113788;-68
2021/03/17 08:35:59;;;;;;;3.30;2.30;;;;;;;9.52;61.75;102557.16;4876675;28;123334;-68
2021/03/17 08:38:51;;;;;;;9.20;2.20;;;;;;;9.57;62.08;102564.16;4888612;28;124608;-68
2021/03/17 08:41:36;;;;;;;4.57;2.00;;;;;;;9.61;61.56;102576.47;4887678;28;113396;-68
2021/03/17 08:44:19;;;;;;;3.53;1.80;;;;;;;9.62;61.35;102567.63;4876999;28;112699;-69
2021/03/17 08:46:47;;;;;;;5.15;1.50;;;;;;;9.61;61.17;102566.75;4875663;28;123863;-68
2021/03/17 08:49:28;;;;;;;2.55;1.38;;;;;;;9.58;60.36;102565.94;4877116;28;124117;-68
2021/03/17 08:51:55;;;;;;;2.10;1.50;;;;;;;9.60;60.57;102561.50;4876221;28;114118;-68
2021/03/17 08:57:02;;;;;;;4.47;1.40;;;;;;;9.68;60.70;102578.13;4875096;28;123327;-68
2021/03/17 09:00:00;;;;;;;4.07;1.00;;;;;;;9.70;60.55;102576.31;4875002;28;124010;-68
2021/03/17 09:02:26;;;;;;;3.42;1.10;;;;;;;9.74;60.14;102573.63;4879157;28;114606;-68
2021/03/17 09:05:02;;;;;;;2.33;1.08;;;;;;;9.79;59.43;102576.22;4875805;28;114105;-69
2021/03/17 09:07:34;;;;;;;4.72;1.20;;;;;;;9.85;59.67;102569.94;4874078;28;123689;-68
2021/03/17 09:10:16;;;;;;;2.88;1.10;;;;;;;9.96;60.33;102575.09;4891459;28;123736;-68
2021/03/17 09:12:43;;;;;;;3.42;1.23;;;;;;;10.07;59.99;102575.81;4876887;28;114182;-68
2021/03/17 09:15:20;;;;;;;5.82;1.13;;;;;;;10.17;59.79;102572.16;4883250;28;113798;-68
2021/03/17 09:17:50;;;;;;;2.92;1.38;;;;;;;10.26;59.00;102566.69;4878301;28;124045;-68
2021/03/17 09:20:41;;;;;;;4.63;1.42;;;;;;;10.37;59.01;102569.19;4876743;28;124312;-69
2021/03/17 09:23:19;;;;;;;2.58;1.33;;;;;;;10.47;58.31;102569.91;4888649;28;115565;-68
2021/03/17 09:25:49;;;;;;;3.58;1.30;;;;;;;10.51;57.55;102572.50;4891223;28;114877;-67
2021/03/17 09:28:30;;;;;;;3.53;1.13;;;;;;;10.54;57.27;102581.28;4874949;28;124124;-67
2021/03/17 09:31:06;;;;;;;6.30;1.00;;;;;;;10.54;57.16;102576.84;4882037;28;123176;-69
2021/03/17 09:33:40;;;;;;;4.80;1.10;;;;;;;10.55;56.60;102578.63;4879707;28;114777;-68
2021/03/17 09:36:18;;;;;;;3.75;1.05;;;;;;;10.59;57.17;102569.72;4893887;28;113794;-69
2021/03/17 09:38:48;;;;;;;3.63;1.00;;;;;;;10.69;57.67;102570.44;4877546;28;123278;-67
2021/03/17 09:41:20;;;;;;;5.15;1.13;;;;;;;10.76;56.11;102571.22;4887333;28;123698;-68
2021/03/17 09:44:04;;;;;;;4.57;1.27;;;;;;;10.76;56.00;102565.91;4873335;28;114735;-69
2021/03/17 09:46:37;;;;;;;6.88;1.20;;;;;;;10.75;55.96;102564.13;4876340;28;112849;-68
2021/03/17 09:49:14;;;;;;;3.33;1.20;;;;;;;10.76;56.08;102571.22;4881192;28;123001;-69
2021/03/17 09:51:49;;;;;;;4.43;1.58;;;;;;;10.74;55.65;102575.63;4885240;28;123659;-68
2021/03/17 09:54:19;;;;;;;7.63;1.80;;;;;;;10.69;55.03;102566.00;4869883;28;112435;-68
2021/03/17 09:56:50;;;;;;;5.78;1.30;;;;;;;10.66;54.65;102570.47;4885079;28;114326;-70
2021/03/17 09:59:32;;;;;;;4.60;1.35;;;;;;;10.59;55.21;102575.03;4891519;28;122203;-69
2021/03/17 10:01:58;;;;;;;6.60;1.25;;;;;;;10.54;55.48;102566.25;4883843;28;123161;-69
2021/03/17 10:04:31;;;;;;;4.63;1.63;;;;;;;10.49;55.69;102573.41;4889074;28;114988;-68
2021/03/17 10:06:59;;;;;;;3.28;1.20;;;;;;;10.44;55.43;102577.94;4894557;28;113679;-69
2021/03/17 10:09:30;;;;;;;3.17;1.15;;;;;;;10.39;55.79;102574.47;4892072;28;123954;-69
2021/03/17 10:12:31;;;;;;;3.80;1.30;;;;;;;10.34;55.55;102577.22;4889764;28;123768;-68
2021/03/17 10:15:08;;;;;;;6.82;1.30;;;;;;;10.26;56.37;102579.91;4885768;28;114815;-68
2021/03/17 10:17:35;;;;;;;4.93;1.40;;;;;;;10.19;56.44;102575.66;4879827;28;115272;-68
2021/03/17 10:20:11;;;;;;;4.90;1.35;;;;;;;10.13;56.37;102576.63;4890463;28;123186;-68
2021/03/17 10:22:38;;;;;;;4.70;1.40;;;;;;;10.08;56.54;102582.88;4881680;28;124840;-68
2021/03/17 10:25:15;;;;;;;3.80;1.70;;;;;;;10.07;57.52;102583.75;4892715;28;114903;-68
2021/03/17 10:27:45;;;;;;;5.70;1.60;;;;;;;10.12;57.04;102579.28;4873625;28;113555;-68
2021/03/17 10:30:15;;;;;;;5.10;1.45;;;;;;;10.14;57.17;102567.75;4873626;28;123008;-68
2021/03/17 10:32:44;;;;;;;4.38;1.52;;;;;;;10.18;57.40;102571.22;4883452;28;124701;-68
2021/03/17 10:35:15;;;;;;;4.47;1.50;;;;;;;10.22;57.73;102572.94;4876634;28;114317;-68
2021/03/17 10:37:49;;;;;;;6.83;1.50;;;;;;;10.31;57.91;102569.31;4873382;28;114016;-69
2021/03/17 10:40:20;;;;;;;4.45;1.52;;;;;;;10.38;57.36;102564.75;4871237;28;123692;-68
2021/03/17 10:42:48;;;;;;;4.03;1.58;;;;;;;10.45;57.51;102563.78;4875949;28;123783;-69
2021/03/17 10:45:18;;;;;;;3.45;1.50;;;;;;;10.51;57.27;102558.38;4887853;28;114765;-68
2021/03/17 10:47:45;;;;;;;2.47;1.20;;;;;;;10.58;56.68;102552.06;4890155;28;113795;-68
2021/03/17 10:50:32;;;;;;;5.10;1.40;;;;;;;10.58;55.62;102557.34;4888873;28;124181;-69
2021/03/17 10:52:59;;;;;;;4.28;1.40;;;;;;;10.57;55.45;102563.56;4886784;28;123880;-69
2021/03/17 10:55:30;;;;;;;4.60;1.20;;;;;;;10.53;54.42;102559.22;4902577;28;113198;-68
2021/03/17 10:58:14;;;;;;;7.63;1.45;;;;;;;10.47;52.94;102564.63;4892064;28;113770;-68
2021/03/17 11:00:43;;;;;;;4.25;1.10;;;;;;;10.40;52.80;102563.84;4891177;28;124360;-68
2021/03/17 11:03:31;;;;;;;3.60;1.33;;;;;;;10.30;51.94;102563.13;4888410;28;124106;-68
2021/03/17 11:06:16;;;;;;;5.45;1.13;;;;;;;10.26;52.19;102569.31;4859424;28;114211;-68
2021/03/17 11:08:46;;;;;;;6.97;1.50;;;;;;;10.27;52.59;102563.16;4886525;28;114836;-68
2021/03/17 11:11:13;;;;;;;8.85;1.60;;;;;;;10.31;53.16;102556.94;4887285;28;124184;-68
2021/03/17 11:13:45;;;;;;;4.43;1.10;;;;;;;10.37;53.00;102557.72;4888164;28;124685;-68
2021/03/17 11:16:26;;;;;;;2.97;0.85;;;;;;;10.44;53.46;102557.59;4887008;28;114394;-68
2021/03/17 11:18:55;;;;;;;3.78;1.27;;;;;;;10.52;53.92;102560.13;4885446;28;114257;-68
2021/03/17 11:21:34;;;;;;;4.97;1.30;;;;;;;10.60;53.67;102560.84;4892693;28;123446;-69
2021/03/17 11:24:07;;;;;;;4.68;1.30;;;;;;;10.65;53.30;102564.31;4891327;28;124628;-68
2021/03/17 11:26:40;;;;;;;5.32;1.00;;;;;;;10.66;52.61;102566.06;4895970;28;113251;-68
2021/03/17 11:29:13;;;;;;;6.03;1.10;;;;;;;10.67;51.55;102562.50;4894470;28;113212;-69
2021/03/17 11:31:40;;;;;;;8.02;1.88;;;;;;;10.67;51.65;102567.78;4891731;28;124995;-69
2021/03/17 11:34:09;;;;;;;4.30;1.10;;;;;;;10.62;51.51;102574.94;4892153;28;124375;-68
2021/03/17 11:36:36;;;;;;;6.70;1.42;;;;;;;10.59;51.54;102580.31;4891898;28;114208;-68
2021/03/17 11:39:09;;;;;;;7.53;1.40;;;;;;;10.54;51.22;102576.84;4888966;28;114367;-68
2021/03/17 11:41:37;;;;;;;5.63;1.20;;;;;;;10.52;51.30;102583.97;4895165;28;123800;-67
2021/03/17 11:44:05;;;;;;;4.35;1.15;;;;;;;10.50;51.82;102572.53;4889124;28;123845;-68
2021/03/17 11:46:32;;;;;;;3.95;1.30;;;;;;;10.52;52.34;102581.31;4893896;28;114652;-69
2021/03/17 11:48:59;;;;;;;7.38;1.40;;;;;;;10.52;52.78;102573.38;4889093;28;113934;-69
2021/03/17 11:51:26;;;;;;;3.25;1.30;;;;;;;10.50;52.83;102570.75;4890740;28;124482;-68